sensor_id;sensor_type;location;lat;lon;timestamp;temperature;humidity
47434;SHT31;33184;48.774;8.918;2023-04-03T00:03:54;2.88;76.96
47434;SHT31;33184;48.774;8.918;2023-04-03T00:09:15;2.84;77.46
47434;SHT31;33184;48.774;8.918;2023-04-03T00:14:36;2.79;77.17
47434;SHT31;33184;48.774;8.918;2023-04-03T00:19:56;2.73;77.62
47434;SHT31;33184;48.774;8.918;2023-04-03T00:25:17;2.67;77.80
47434;SHT31;33184;48.774;8.918;2023-04-03T00:30:37;2.65;78.14
47434;SHT31;33184;48.774;8.918;2023-04-03T00:35:58;2.62;78.47
47434;SHT31;33184;48.774;8.918;2023-04-03T00:41:18;2.53;78.51
47434;SHT31;33184;48.774;8.918;2023-04-03T00:46:39;2.55;78.60
47434;SHT31;33184;48.774;8.918;2023-04-03T00:52:00;2.52;78.66
47434;SHT31;33184;48.774;8.918;2023-04-03T00:57:21;2.52;78.89
47434;SHT31;33184;48.774;8.918;2023-04-03T01:02:42;2.50;79.05
47434;SHT31;33184;48.774;8.918;2023-04-03T01:08:05;2.46;79.17
47434;SHT31;33184;48.774;8.918;2023-04-03T01:13:30;2.43;79.33
47434;SHT31;33184;48.774;8.918;2023-04-03T01:18:51;2.41;79.53
47434;SHT31;33184;48.774;8.918;2023-04-03T01:24:30;2.39;79.51
47434;SHT31;33184;48.774;8.918;2023-04-03T01:29:52;2.41;79.54
47434;SHT31;33184;48.774;8.918;2023-04-03T01:35:13;2.38;79.60
47434;SHT31;33184;48.774;8.918;2023-04-03T01:40:34;2.35;79.64
47434;SHT31;33184;48.774;8.918;2023-04-03T01:45:55;2.32;79.77
47434;SHT31;33184;48.774;8.918;2023-04-03T01:51:16;2.36;79.85
47434;SHT31;33184;48.774;8.918;2023-04-03T01:56:36;2.35;79.81
47434;SHT31;33184;48.774;8.918;2023-04-03T02:02:01;2.32;79.93
47434;SHT31;33184;48.774;8.918;2023-04-03T02:07:22;2.32;80.11
47434;SHT31;33184;48.774;8.918;2023-04-03T02:12:43;2.25;79.99
47434;SHT31;33184;48.774;8.918;2023-04-03T02:18:03;2.15;79.81
47434;SHT31;33184;48.774;8.918;2023-04-03T02:23:24;2.03;80.13
47434;SHT31;33184;48.774;8.918;2023-04-03T02:28:45;1.97;80.26
47434;SHT31;33184;48.774;8.918;2023-04-03T02:34:06;1.95;80.24
47434;SHT31;33184;48.774;8.918;2023-04-03T02:39:29;2.02;80.20
47434;SHT31;33184;48.774;8.918;2023-04-03T02:44:51;2.08;80.20
47434;SHT31;33184;48.774;8.918;2023-04-03T02:50:12;2.09;79.76
47434;SHT31;33184;48.774;8.918;2023-04-03T02:55:32;2.13;79.88
47434;SHT31;33184;48.774;8.918;2023-04-03T03:00:53;2.25;79.91
47434;SHT31;33184;48.774;8.918;2023-04-03T03:06:15;2.18;79.24
47434;SHT31;33184;48.774;8.918;2023-04-03T03:11:36;2.12;79.09
47434;SHT31;33184;48.774;8.918;2023-04-03T03:16:57;2.11;78.82
47434;SHT31;33184;48.774;8.918;2023-04-03T03:22:18;2.11;79.04
47434;SHT31;33184;48.774;8.918;2023-04-03T03:27:39;2.09;78.84
47434;SHT31;33184;48.774;8.918;2023-04-03T03:33:01;2.13;79.13
47434;SHT31;33184;48.774;8.918;2023-04-03T03:38:22;2.11;78.99
47434;SHT31;33184;48.774;8.918;2023-04-03T03:43:43;2.12;79.16
47434;SHT31;33184;48.774;8.918;2023-04-03T03:49:04;2.11;79.01
47434;SHT31;33184;48.774;8.918;2023-04-03T03:54:26;2.21;79.22
47434;SHT31;33184;48.774;8.918;2023-04-03T03:59:46;2.23;78.63
47434;SHT31;33184;48.774;8.918;2023-04-03T04:05:11;2.22;78.42
47434;SHT31;33184;48.774;8.918;2023-04-03T04:10:33;2.18;77.93
47434;SHT31;33184;48.774;8.918;2023-04-03T04:15:54;2.13;77.85
47434;SHT31;33184;48.774;8.918;2023-04-03T04:21:17;2.18;76.65
47434;SHT31;33184;48.774;8.918;2023-04-03T04:26:39;2.15;76.30
47434;SHT31;33184;48.774;8.918;2023-04-03T04:32:03;2.19;76.00
47434;SHT31;33184;48.774;8.918;2023-04-03T04:37:24;2.18;76.07
47434;SHT31;33184;48.774;8.918;2023-04-03T04:42:46;2.16;76.12
47434;SHT31;33184;48.774;8.918;2023-04-03T04:48:07;2.25;76.27
47434;SHT31;33184;48.774;8.918;2023-04-03T04:53:28;2.31;75.91
47434;SHT31;33184;48.774;8.918;2023-04-03T04:58:49;2.38;75.41
47434;SHT31;33184;48.774;8.918;2023-04-03T05:04:12;2.38;75.09
47434;SHT31;33184;48.774;8.918;2023-04-03T05:09:33;2.42;74.62
47434;SHT31;33184;48.774;8.918;2023-04-03T05:14:55;2.49;75.01
47434;SHT31;33184;48.774;8.918;2023-04-03T05:20:16;2.50;74.56
47434;SHT31;33184;48.774;8.918;2023-04-03T05:25:39;2.49;72.32
47434;SHT31;33184;48.774;8.918;2023-04-03T05:31:01;2.57;69.23
47434;SHT31;33184;48.774;8.918;2023-04-03T05:36:28;2.66;70.39
47434;SHT31;33184;48.774;8.918;2023-04-03T05:41:54;2.65;70.15
47434;SHT31;33184;48.774;8.918;2023-04-03T05:47:15;2.65;70.87
47434;SHT31;33184;48.774;8.918;2023-04-03T05:52:38;2.62;71.71
47434;SHT31;33184;48.774;8.918;2023-04-03T05:58:00;2.50;72.41
47434;SHT31;33184;48.774;8.918;2023-04-03T06:03:21;2.50;73.42
47434;SHT31;33184;48.774;8.918;2023-04-03T06:08:43;2.48;73.46
47434;SHT31;33184;48.774;8.918;2023-04-03T06:14:04;2.57;73.87
47434;SHT31;33184;48.774;8.918;2023-04-03T06:19:24;2.57;73.97
47434;SHT31;33184;48.774;8.918;2023-04-03T06:24:49;2.56;73.46
47434;SHT31;33184;48.774;8.918;2023-04-03T06:30:10;2.53;73.35
47434;SHT31;33184;48.774;8.918;2023-04-03T06:35:31;2.55;73.06
47434;SHT31;33184;48.774;8.918;2023-04-03T06:40:52;2.63;73.29
47434;SHT31;33184;48.774;8.918;2023-04-03T06:46:17;2.62;72.64
47434;SHT31;33184;48.774;8.918;2023-04-03T06:51:38;2.63;72.59
47434;SHT31;33184;48.774;8.918;2023-04-03T06:56:59;2.77;72.89
47434;SHT31;33184;48.774;8.918;2023-04-03T07:02:20;2.76;72.75
47434;SHT31;33184;48.774;8.918;2023-04-03T07:07:41;2.80;72.55
47434;SHT31;33184;48.774;8.918;2023-04-03T07:13:02;2.81;73.14
47434;SHT31;33184;48.774;8.918;2023-04-03T07:18:23;2.80;73.28
47434;SHT31;33184;48.774;8.918;2023-04-03T07:23:43;2.81;73.27
47434;SHT31;33184;48.774;8.918;2023-04-03T07:29:05;2.84;73.09
47434;SHT31;33184;48.774;8.918;2023-04-03T07:34:26;2.86;73.00
47434;SHT31;33184;48.774;8.918;2023-04-03T07:39:46;3.05;72.86
47434;SHT31;33184;48.774;8.918;2023-04-03T07:45:07;3.14;72.46
47434;SHT31;33184;48.774;8.918;2023-04-03T07:50:28;3.12;73.29
47434;SHT31;33184;48.774;8.918;2023-04-03T07:55:50;3.09;73.19
47434;SHT31;33184;48.774;8.918;2023-04-03T08:01:15;3.18;73.30
47434;SHT31;33184;48.774;8.918;2023-04-03T08:06:36;3.29;72.89
47434;SHT31;33184;48.774;8.918;2023-04-03T08:11:57;3.38;72.61
47434;SHT31;33184;48.774;8.918;2023-04-03T08:17:18;3.44;71.86
47434;SHT31;33184;48.774;8.918;2023-04-03T08:22:40;3.54;72.06
47434;SHT31;33184;48.774;8.918;2023-04-03T08:28:00;3.65;72.57
47434;SHT31;33184;48.774;8.918;2023-04-03T08:33:22;3.79;71.93
47434;SHT31;33184;48.774;8.918;2023-04-03T08:38:43;3.86;72.26
47434;SHT31;33184;48.774;8.918;2023-04-03T08:44:25;3.90;71.33
47434;SHT31;33184;48.774;8.918;2023-04-03T08:49:56;4.00;71.51
47434;SHT31;33184;48.774;8.918;2023-04-03T08:55:22;4.04;71.40
47434;SHT31;33184;48.774;8.918;2023-04-03T09:00:47;4.13;70.77
47434;SHT31;33184;48.774;8.918;2023-04-03T09:06:22;4.31;70.57
47434;SHT31;33184;48.774;8.918;2023-04-03T09:22:50;4.84;68.54
47434;SHT31;33184;48.774;8.918;2023-04-03T09:28:13;4.93;68.10
47434;SHT31;33184;48.774;8.918;2023-04-03T09:33:34;5.02;67.23
47434;SHT31;33184;48.774;8.918;2023-04-03T09:39:05;4.78;66.39
47434;SHT31;33184;48.774;8.918;2023-04-03T09:44:31;4.81;67.14
47434;SHT31;33184;48.774;8.918;2023-04-03T09:50:18;4.96;66.23
47434;SHT31;33184;48.774;8.918;2023-04-03T09:55:43;4.92;65.26
47434;SHT31;33184;48.774;8.918;2023-04-03T10:01:04;4.98;66.87
47434;SHT31;33184;48.774;8.918;2023-04-03T10:06:25;5.02;66.16
47434;SHT31;33184;48.774;8.918;2023-04-03T10:17:42;5.16;64.67
47434;SHT31;33184;48.774;8.918;2023-04-03T10:23:36;5.09;61.45
47434;SHT31;33184;48.774;8.918;2023-04-03T10:29:40;5.05;61.04
47434;SHT31;33184;48.774;8.918;2023-04-03T10:35:13;5.00;59.14
47434;SHT31;33184;48.774;8.918;2023-04-03T10:40:47;5.02;59.87
47434;SHT31;33184;48.774;8.918;2023-04-03T10:46:23;5.13;59.74
47434;SHT31;33184;48.774;8.918;2023-04-03T10:52:05;5.13;59.03
47434;SHT31;33184;48.774;8.918;2023-04-03T10:57:27;5.29;58.81
47434;SHT31;33184;48.774;8.918;2023-04-03T11:02:56;5.42;59.24
47434;SHT31;33184;48.774;8.918;2023-04-03T11:14:05;5.10;57.49
47434;SHT31;33184;48.774;8.918;2023-04-03T11:25:23;5.09;58.21
47434;SHT31;33184;48.774;8.918;2023-04-03T11:31:06;4.98;58.02
47434;SHT31;33184;48.774;8.918;2023-04-03T11:36:41;5.00;58.10
47434;SHT31;33184;48.774;8.918;2023-04-03T11:48:04;5.26;57.47
47434;SHT31;33184;48.774;8.918;2023-04-03T11:53:29;5.27;56.18
47434;SHT31;33184;48.774;8.918;2023-04-03T12:04:32;5.06;56.09
47434;SHT31;33184;48.774;8.918;2023-04-03T12:09:57;5.09;57.17
47434;SHT31;33184;48.774;8.918;2023-04-03T12:20:54;5.22;57.00
47434;SHT31;33184;48.774;8.918;2023-04-03T12:26:22;5.53;56.77
47434;SHT31;33184;48.774;8.918;2023-04-03T12:48:29;5.81;53.21
47434;SHT31;33184;48.774;8.918;2023-04-03T12:53:52;5.81;52.79
47434;SHT31;33184;48.774;8.918;2023-04-03T12:59:26;5.90;50.23
47434;SHT31;33184;48.774;8.918;2023-04-03T13:04:47;5.94;49.29
47434;SHT31;33184;48.774;8.918;2023-04-03T13:15:30;6.15;50.36
47434;SHT31;33184;48.774;8.918;2023-04-03T13:20:51;6.24;50.98
47434;SHT31;33184;48.774;8.918;2023-04-03T13:26:15;5.93;50.03
47434;SHT31;33184;48.774;8.918;2023-04-03T13:31:38;6.09;51.60
47434;SHT31;33184;48.774;8.918;2023-04-03T13:37:01;5.98;51.85
47434;SHT31;33184;48.774;8.918;2023-04-03T13:42:26;6.09;52.32
47434;SHT31;33184;48.774;8.918;2023-04-03T13:47:48;5.91;52.30
47434;SHT31;33184;48.774;8.918;2023-04-03T13:53:13;6.08;50.81
47434;SHT31;33184;48.774;8.918;2023-04-03T13:58:35;6.08;52.14
47434;SHT31;33184;48.774;8.918;2023-04-03T14:03:58;6.36;52.33
47434;SHT31;33184;48.774;8.918;2023-04-03T14:09:21;6.28;51.65
47434;SHT31;33184;48.774;8.918;2023-04-03T14:14:42;6.09;50.79
47434;SHT31;33184;48.774;8.918;2023-04-03T14:20:04;6.35;50.17
47434;SHT31;33184;48.774;8.918;2023-04-03T14:25:25;6.16;51.20
47434;SHT31;33184;48.774;8.918;2023-04-03T14:30:48;6.32;50.44
47434;SHT31;33184;48.774;8.918;2023-04-03T14:36:29;6.26;47.71
47434;SHT31;33184;48.774;8.918;2023-04-03T14:41:50;6.11;48.22
47434;SHT31;33184;48.774;8.918;2023-04-03T14:47:12;6.01;49.68
47434;SHT31;33184;48.774;8.918;2023-04-03T14:52:35;6.21;51.23
47434;SHT31;33184;48.774;8.918;2023-04-03T14:57:56;6.70;49.58
47434;SHT31;33184;48.774;8.918;2023-04-03T15:03:20;6.30;49.87
47434;SHT31;33184;48.774;8.918;2023-04-03T15:08:42;6.12;49.65
47434;SHT31;33184;48.774;8.918;2023-04-03T15:14:02;6.14;48.26
47434;SHT31;33184;48.774;8.918;2023-04-03T15:19:23;5.99;47.35
47434;SHT31;33184;48.774;8.918;2023-04-03T15:24:44;7.58;44.16
47434;SHT31;33184;48.774;8.918;2023-04-03T15:30:06;7.41;46.08
47434;SHT31;33184;48.774;8.918;2023-04-03T15:35:28;7.46;44.72
47434;SHT31;33184;48.774;8.918;2023-04-03T15:40:48;8.30;42.61
47434;SHT31;33184;48.774;8.918;2023-04-03T15:46:09;7.11;43.51
47434;SHT31;33184;48.774;8.918;2023-04-03T15:51:29;6.57;46.91
47434;SHT31;33184;48.774;8.918;2023-04-03T15:56:51;6.38;46.04
47434;SHT31;33184;48.774;8.918;2023-04-03T16:02:12;6.93;45.72
47434;SHT31;33184;48.774;8.918;2023-04-03T16:07:33;6.46;45.75
47434;SHT31;33184;48.774;8.918;2023-04-03T16:12:54;5.99;47.25
47434;SHT31;33184;48.774;8.918;2023-04-03T16:18:14;5.77;48.76
47434;SHT31;33184;48.774;8.918;2023-04-03T16:23:35;5.57;49.84
47434;SHT31;33184;48.774;8.918;2023-04-03T16:28:56;5.69;49.43
47434;SHT31;33184;48.774;8.918;2023-04-03T16:34:16;6.11;48.09
47434;SHT31;33184;48.774;8.918;2023-04-03T16:39:37;5.97;48.47
47434;SHT31;33184;48.774;8.918;2023-04-03T16:44:58;5.99;48.36
47434;SHT31;33184;48.774;8.918;2023-04-03T16:50:21;6.29;48.03
47434;SHT31;33184;48.774;8.918;2023-04-03T16:55:41;6.26;46.81
47434;SHT31;33184;48.774;8.918;2023-04-03T17:01:16;6.11;46.31
47434;SHT31;33184;48.774;8.918;2023-04-03T17:06:37;5.75;46.08
47434;SHT31;33184;48.774;8.918;2023-04-03T17:11:57;5.56;46.62
47434;SHT31;33184;48.774;8.918;2023-04-03T17:17:20;5.42;48.41
47434;SHT31;33184;48.774;8.918;2023-04-03T17:22:41;5.29;49.08
47434;SHT31;33184;48.774;8.918;2023-04-03T17:28:02;5.22;50.15
47434;SHT31;33184;48.774;8.918;2023-04-03T17:33:22;5.05;49.94
47434;SHT31;33184;48.774;8.918;2023-04-03T17:38:43;5.02;50.14
47434;SHT31;33184;48.774;8.918;2023-04-03T17:44:04;4.95;50.91
47434;SHT31;33184;48.774;8.918;2023-04-03T17:49:25;4.84;51.59
47434;SHT31;33184;48.774;8.918;2023-04-03T17:54:45;4.78;52.33
47434;SHT31;33184;48.774;8.918;2023-04-03T18:00:06;4.72;52.90
47434;SHT31;33184;48.774;8.918;2023-04-03T18:05:32;4.65;53.03
47434;SHT31;33184;48.774;8.918;2023-04-03T18:10:54;4.62;53.36
47434;SHT31;33184;48.774;8.918;2023-04-03T18:16:15;4.55;53.82
47434;SHT31;33184;48.774;8.918;2023-04-03T18:21:35;4.53;53.87
47434;SHT31;33184;48.774;8.918;2023-04-03T18:27:00;4.44;53.70
47434;SHT31;33184;48.774;8.918;2023-04-03T18:32:21;4.45;54.28
47434;SHT31;33184;48.774;8.918;2023-04-03T18:37:41;4.41;54.01
47434;SHT31;33184;48.774;8.918;2023-04-03T18:43:02;4.41;54.08
47434;SHT31;33184;48.774;8.918;2023-04-03T18:48:24;4.35;54.49
47434;SHT31;33184;48.774;8.918;2023-04-03T18:53:45;4.31;54.28
47434;SHT31;33184;48.774;8.918;2023-04-03T18:59:05;4.27;54.43
47434;SHT31;33184;48.774;8.918;2023-04-03T19:04:27;4.23;54.30
47434;SHT31;33184;48.774;8.918;2023-04-03T19:09:48;4.21;54.65
47434;SHT31;33184;48.774;8.918;2023-04-03T19:15:10;4.20;54.26
47434;SHT31;33184;48.774;8.918;2023-04-03T19:20:30;4.14;54.13
47434;SHT31;33184;48.774;8.918;2023-04-03T19:26:17;4.02;53.94
47434;SHT31;33184;48.774;8.918;2023-04-03T19:31:38;3.93;54.06
47434;SHT31;33184;48.774;8.918;2023-04-03T19:36:59;3.81;54.42
47434;SHT31;33184;48.774;8.918;2023-04-03T19:42:20;3.68;54.51
47434;SHT31;33184;48.774;8.918;2023-04-03T19:47:41;3.59;53.92
47434;SHT31;33184;48.774;8.918;2023-04-03T19:53:02;3.51;54.55
47434;SHT31;33184;48.774;8.918;2023-04-03T19:58:24;3.37;54.99
47434;SHT31;33184;48.774;8.918;2023-04-03T20:03:46;3.27;54.89
47434;SHT31;33184;48.774;8.918;2023-04-03T20:09:07;3.24;54.88
47434;SHT31;33184;48.774;8.918;2023-04-03T20:14:27;3.12;55.51
47434;SHT31;33184;48.774;8.918;2023-04-03T20:19:48;3.09;55.52
47434;SHT31;33184;48.774;8.918;2023-04-03T20:25:11;3.05;55.30
47434;SHT31;33184;48.774;8.918;2023-04-03T20:30:32;3.03;55.60
47434;SHT31;33184;48.774;8.918;2023-04-03T20:35:56;2.88;55.64
47434;SHT31;33184;48.774;8.918;2023-04-03T20:41:17;2.80;55.62
47434;SHT31;33184;48.774;8.918;2023-04-03T20:46:38;2.70;56.32
47434;SHT31;33184;48.774;8.918;2023-04-03T20:51:59;2.57;56.58
47434;SHT31;33184;48.774;8.918;2023-04-03T20:57:19;2.48;56.96
47434;SHT31;33184;48.774;8.918;2023-04-03T21:02:40;2.36;57.68
47434;SHT31;33184;48.774;8.918;2023-04-03T21:19:57;2.09;58.45
47434;SHT31;33184;48.774;8.918;2023-04-03T21:25:18;2.09;58.81
47434;SHT31;33184;48.774;8.918;2023-04-03T21:30:38;1.99;59.38
47434;SHT31;33184;48.774;8.918;2023-04-03T21:35:59;1.95;59.95
47434;SHT31;33184;48.774;8.918;2023-04-03T21:41:19;1.82;59.94
47434;SHT31;33184;48.774;8.918;2023-04-03T21:46:41;1.84;60.29
47434;SHT31;33184;48.774;8.918;2023-04-03T21:52:02;1.68;60.33
47434;SHT31;33184;48.774;8.918;2023-04-03T21:57:22;1.54;60.82
47434;SHT31;33184;48.774;8.918;2023-04-03T22:02:43;1.50;60.47
47434;SHT31;33184;48.774;8.918;2023-04-03T22:08:03;1.47;60.76
47434;SHT31;33184;48.774;8.918;2023-04-03T22:13:24;1.40;61.23
47434;SHT31;33184;48.774;8.918;2023-04-03T22:18:44;1.30;61.49
47434;SHT31;33184;48.774;8.918;2023-04-03T22:24:05;1.22;61.69
47434;SHT31;33184;48.774;8.918;2023-04-03T22:29:26;1.17;62.06
47434;SHT31;33184;48.774;8.918;2023-04-03T22:34:46;1.07;62.07
47434;SHT31;33184;48.774;8.918;2023-04-03T22:40:08;1.02;62.27
47434;SHT31;33184;48.774;8.918;2023-04-03T22:45:28;0.91;62.76
47434;SHT31;33184;48.774;8.918;2023-04-03T22:50:50;0.84;62.64
47434;SHT31;33184;48.774;8.918;2023-04-03T22:56:10;0.81;63.06
47434;SHT31;33184;48.774;8.918;2023-04-03T23:01:31;0.72;63.34
47434;SHT31;33184;48.774;8.918;2023-04-03T23:06:52;0.65;63.41
47434;SHT31;33184;48.774;8.918;2023-04-03T23:12:13;0.64;63.71
47434;SHT31;33184;48.774;8.918;2023-04-03T23:17:37;0.54;63.78
47434;SHT31;33184;48.774;8.918;2023-04-03T23:22:57;0.51;64.05
47434;SHT31;33184;48.774;8.918;2023-04-03T23:28:18;0.47;64.66
47434;SHT31;33184;48.774;8.918;2023-04-03T23:33:38;0.38;64.50
47434;SHT31;33184;48.774;8.918;2023-04-03T23:39:02;0.34;65.09
47434;SHT31;33184;48.774;8.918;2023-04-03T23:44:24;0.29;65.24
47434;SHT31;33184;48.774;8.918;2023-04-03T23:49:44;0.24;65.22
47434;SHT31;33184;48.774;8.918;2023-04-03T23:55:05;0.19;65.42
